sensor_id;sensor_type;location;lat;lon;timestamp;P1;durP1;ratioP1;P2;durP2;ratioP2
38603;SDS011;24924;50.054;8.790;2024-03-08T00:00:28;23.88;;;12.63;;
38603;SDS011;24924;50.054;8.790;2024-03-08T00:03:14;22.73;;;12.60;;
38603;SDS011;24924;50.054;8.790;2024-03-08T00:06:00;23.02;;;12.55;;
38603;SDS011;24924;50.054;8.790;2024-03-08T00:08:47;23.52;;;12.75;;
38603;SDS011;24924;50.054;8.790;2024-03-08T00:11:33;21.35;;;12.38;;
38603;SDS011;24924;50.054;8.790;2024-03-08T00:14:20;22.10;;;12.25;;
38603;SDS011;24924;50.054;8.790;2024-03-08T00:17:07;24.53;;;12.57;;
38603;SDS011;24924;50.054;8.790;2024-03-08T00:19:54;22.42;;;12.15;;
38603;SDS011;24924;50.054;8.790;2024-03-08T00:22:41;24.08;;;12.45;;
38603;SDS011;24924;50.054;8.790;2024-03-08T00:25:27;21.90;;;12.52;;
38603;SDS011;24924;50.054;8.790;2024-03-08T00:28:13;24.85;;;13.45;;
38603;SDS011;24924;50.054;8.790;2024-03-08T00:31:00;22.13;;;12.40;;
38603;SDS011;24924;50.054;8.790;2024-03-08T00:33:47;22.92;;;12.95;;
38603;SDS011;24924;50.054;8.790;2024-03-08T00:36:33;25.50;;;12.38;;
38603;SDS011;24924;50.054;8.790;2024-03-08T00:39:19;25.95;;;12.18;;
38603;SDS011;24924;50.054;8.790;2024-03-08T00:42:06;25.27;;;12.75;;
38603;SDS011;24924;50.054;8.790;2024-03-08T00:44:52;22.87;;;12.20;;
38603;SDS011;24924;50.054;8.790;2024-03-08T00:47:39;20.10;;;11.98;;
38603;SDS011;24924;50.054;8.790;2024-03-08T00:50:25;21.42;;;11.75;;
38603;SDS011;24924;50.054;8.790;2024-03-08T00:53:11;24.80;;;12.63;;
38603;SDS011;24924;50.054;8.790;2024-03-08T00:55:58;21.60;;;12.98;;
38603;SDS011;24924;50.054;8.790;2024-03-08T00:58:44;23.30;;;12.93;;
38603;SDS011;24924;50.054;8.790;2024-03-08T01:01:30;21.75;;;12.07;;
38603;SDS011;24924;50.054;8.790;2024-03-08T01:04:17;26.65;;;12.77;;
38603;SDS011;24924;50.054;8.790;2024-03-08T01:07:04;21.98;;;11.40;;
38603;SDS011;24924;50.054;8.790;2024-03-08T01:09:50;22.70;;;12.02;;
38603;SDS011;24924;50.054;8.790;2024-03-08T01:12:36;22.93;;;11.83;;
38603;SDS011;24924;50.054;8.790;2024-03-08T01:15:23;24.45;;;12.85;;
38603;SDS011;24924;50.054;8.790;2024-03-08T01:18:09;24.58;;;12.50;;
38603;SDS011;24924;50.054;8.790;2024-03-08T01:20:55;24.95;;;12.88;;
38603;SDS011;24924;50.054;8.790;2024-03-08T01:23:42;23.10;;;12.38;;
38603;SDS011;24924;50.054;8.790;2024-03-08T01:26:29;23.00;;;13.33;;
38603;SDS011;24924;50.054;8.790;2024-03-08T01:29:15;22.52;;;11.75;;
38603;SDS011;24924;50.054;8.790;2024-03-08T01:32:01;21.70;;;12.80;;
38603;SDS011;24924;50.054;8.790;2024-03-08T01:34:47;24.08;;;12.80;;
38603;SDS011;24924;50.054;8.790;2024-03-08T01:37:33;23.35;;;11.80;;
38603;SDS011;24924;50.054;8.790;2024-03-08T01:40:20;21.73;;;11.83;;
38603;SDS011;24924;50.054;8.790;2024-03-08T01:46:15;25.52;;;13.35;;
38603;SDS011;24924;50.054;8.790;2024-03-08T01:49:04;24.20;;;12.20;;
38603;SDS011;24924;50.054;8.790;2024-03-08T01:51:50;25.83;;;12.85;;
38603;SDS011;24924;50.054;8.790;2024-03-08T01:54:37;22.73;;;12.00;;
38603;SDS011;24924;50.054;8.790;2024-03-08T01:57:23;22.25;;;12.15;;
38603;SDS011;24924;50.054;8.790;2024-03-08T02:00:10;24.05;;;12.90;;
38603;SDS011;24924;50.054;8.790;2024-03-08T02:02:57;23.73;;;12.73;;
38603;SDS011;24924;50.054;8.790;2024-03-08T02:05:44;24.60;;;13.80;;
38603;SDS011;24924;50.054;8.790;2024-03-08T02:08:30;24.70;;;12.87;;
38603;SDS011;24924;50.054;8.790;2024-03-08T02:11:17;22.23;;;12.38;;
38603;SDS011;24924;50.054;8.790;2024-03-08T02:14:04;22.70;;;12.50;;
38603;SDS011;24924;50.054;8.790;2024-03-08T02:16:52;23.00;;;11.10;;
38603;SDS011;24924;50.054;8.790;2024-03-08T02:19:39;25.27;;;14.23;;
38603;SDS011;24924;50.054;8.790;2024-03-08T02:22:25;24.37;;;12.87;;
38603;SDS011;24924;50.054;8.790;2024-03-08T02:25:12;21.77;;;13.30;;
38603;SDS011;24924;50.054;8.790;2024-03-08T02:27:58;28.02;;;14.55;;
38603;SDS011;24924;50.054;8.790;2024-03-08T02:30:44;22.75;;;13.02;;
38603;SDS011;24924;50.054;8.790;2024-03-08T02:33:34;24.85;;;13.57;;
38603;SDS011;24924;50.054;8.790;2024-03-08T02:36:21;25.30;;;12.83;;
38603;SDS011;24924;50.054;8.790;2024-03-08T02:39:06;23.45;;;12.32;;
38603;SDS011;24924;50.054;8.790;2024-03-08T02:41:53;23.67;;;12.95;;
38603;SDS011;24924;50.054;8.790;2024-03-08T02:44:43;26.15;;;14.15;;
38603;SDS011;24924;50.054;8.790;2024-03-08T02:47:29;26.08;;;13.60;;
38603;SDS011;24924;50.054;8.790;2024-03-08T02:50:17;24.40;;;12.93;;
38603;SDS011;24924;50.054;8.790;2024-03-08T02:53:03;28.50;;;13.70;;
38603;SDS011;24924;50.054;8.790;2024-03-08T02:55:49;25.83;;;13.95;;
38603;SDS011;24924;50.054;8.790;2024-03-08T02:58:36;23.40;;;12.80;;
38603;SDS011;24924;50.054;8.790;2024-03-08T03:01:22;32.33;;;14.40;;
38603;SDS011;24924;50.054;8.790;2024-03-08T03:04:08;25.70;;;13.63;;
38603;SDS011;24924;50.054;8.790;2024-03-08T03:06:54;25.00;;;13.07;;
38603;SDS011;24924;50.054;8.790;2024-03-08T03:09:40;24.35;;;14.02;;
38603;SDS011;24924;50.054;8.790;2024-03-08T03:12:30;26.80;;;14.10;;
38603;SDS011;24924;50.054;8.790;2024-03-08T03:15:17;28.17;;;14.60;;
38603;SDS011;24924;50.054;8.790;2024-03-08T03:18:03;25.87;;;12.87;;
38603;SDS011;24924;50.054;8.790;2024-03-08T03:20:53;28.10;;;14.18;;
38603;SDS011;24924;50.054;8.790;2024-03-08T03:23:39;25.13;;;13.48;;
38603;SDS011;24924;50.054;8.790;2024-03-08T03:26:26;28.48;;;14.00;;
38603;SDS011;24924;50.054;8.790;2024-03-08T03:29:12;27.15;;;15.65;;
38603;SDS011;24924;50.054;8.790;2024-03-08T03:31:59;28.67;;;14.57;;
38603;SDS011;24924;50.054;8.790;2024-03-08T03:34:45;26.58;;;13.75;;
38603;SDS011;24924;50.054;8.790;2024-03-08T03:37:31;30.15;;;15.13;;
38603;SDS011;24924;50.054;8.790;2024-03-08T03:40:18;26.40;;;14.18;;
38603;SDS011;24924;50.054;8.790;2024-03-08T03:43:05;27.63;;;14.32;;
38603;SDS011;24924;50.054;8.790;2024-03-08T03:45:51;26.03;;;13.67;;
38603;SDS011;24924;50.054;8.790;2024-03-08T03:48:37;32.25;;;15.32;;
38603;SDS011;24924;50.054;8.790;2024-03-08T03:51:23;25.08;;;13.82;;
38603;SDS011;24924;50.054;8.790;2024-03-08T03:54:10;29.38;;;14.48;;
38603;SDS011;24924;50.054;8.790;2024-03-08T03:56:57;26.15;;;13.70;;
38603;SDS011;24924;50.054;8.790;2024-03-08T03:59:43;25.37;;;13.87;;
38603;SDS011;24924;50.054;8.790;2024-03-08T04:02:29;28.77;;;14.02;;
38603;SDS011;24924;50.054;8.790;2024-03-08T04:05:15;30.58;;;14.38;;
38603;SDS011;24924;50.054;8.790;2024-03-08T04:08:02;26.23;;;14.05;;
38603;SDS011;24924;50.054;8.790;2024-03-08T04:10:49;25.13;;;13.88;;
38603;SDS011;24924;50.054;8.790;2024-03-08T04:13:36;28.63;;;14.63;;
38603;SDS011;24924;50.054;8.790;2024-03-08T04:16:23;23.80;;;13.50;;
38603;SDS011;24924;50.054;8.790;2024-03-08T04:19:10;27.02;;;13.60;;
38603;SDS011;24924;50.054;8.790;2024-03-08T04:21:56;22.85;;;12.32;;
38603;SDS011;24924;50.054;8.790;2024-03-08T04:24:43;23.65;;;12.65;;
38603;SDS011;24924;50.054;8.790;2024-03-08T04:27:30;27.03;;;13.23;;
38603;SDS011;24924;50.054;8.790;2024-03-08T04:30:18;25.98;;;12.82;;
38603;SDS011;24924;50.054;8.790;2024-03-08T04:33:06;25.65;;;12.63;;
38603;SDS011;24924;50.054;8.790;2024-03-08T04:35:54;26.40;;;13.32;;
38603;SDS011;24924;50.054;8.790;2024-03-08T04:38:40;24.55;;;13.05;;
38603;SDS011;24924;50.054;8.790;2024-03-08T04:41:26;27.27;;;13.37;;
38603;SDS011;24924;50.054;8.790;2024-03-08T04:44:13;24.38;;;13.02;;
38603;SDS011;24924;50.054;8.790;2024-03-08T04:46:59;27.48;;;13.93;;
38603;SDS011;24924;50.054;8.790;2024-03-08T04:49:46;29.90;;;14.55;;
38603;SDS011;24924;50.054;8.790;2024-03-08T04:52:32;27.20;;;14.18;;
38603;SDS011;24924;50.054;8.790;2024-03-08T04:55:18;27.67;;;13.23;;
38603;SDS011;24924;50.054;8.790;2024-03-08T04:58:06;26.00;;;13.43;;
38603;SDS011;24924;50.054;8.790;2024-03-08T05:00:53;25.05;;;13.80;;
38603;SDS011;24924;50.054;8.790;2024-03-08T05:03:39;25.98;;;14.38;;
38603;SDS011;24924;50.054;8.790;2024-03-08T05:06:25;26.98;;;13.07;;
38603;SDS011;24924;50.054;8.790;2024-03-08T05:09:12;24.43;;;13.17;;
38603;SDS011;24924;50.054;8.790;2024-03-08T05:12:01;29.63;;;14.02;;
38603;SDS011;24924;50.054;8.790;2024-03-08T05:14:47;26.60;;;14.32;;
38603;SDS011;24924;50.054;8.790;2024-03-08T05:17:35;28.08;;;14.98;;
38603;SDS011;24924;50.054;8.790;2024-03-08T05:20:21;27.17;;;14.32;;
38603;SDS011;24924;50.054;8.790;2024-03-08T05:23:07;26.60;;;13.70;;
38603;SDS011;24924;50.054;8.790;2024-03-08T05:25:54;24.73;;;13.55;;
38603;SDS011;24924;50.054;8.790;2024-03-08T05:28:40;27.45;;;14.32;;
38603;SDS011;24924;50.054;8.790;2024-03-08T05:31:26;26.55;;;13.57;;
38603;SDS011;24924;50.054;8.790;2024-03-08T05:34:14;28.10;;;13.93;;
38603;SDS011;24924;50.054;8.790;2024-03-08T05:37:01;25.33;;;13.93;;
38603;SDS011;24924;50.054;8.790;2024-03-08T05:39:47;31.20;;;14.18;;
38603;SDS011;24924;50.054;8.790;2024-03-08T05:42:33;26.67;;;13.43;;
38603;SDS011;24924;50.054;8.790;2024-03-08T05:45:20;28.67;;;14.27;;
38603;SDS011;24924;50.054;8.790;2024-03-08T05:48:07;30.17;;;13.80;;
38603;SDS011;24924;50.054;8.790;2024-03-08T05:50:53;27.90;;;14.77;;
38603;SDS011;24924;50.054;8.790;2024-03-08T05:53:39;31.05;;;15.07;;
38603;SDS011;24924;50.054;8.790;2024-03-08T05:56:25;28.20;;;15.43;;
38603;SDS011;24924;50.054;8.790;2024-03-08T05:59:12;28.33;;;14.20;;
38603;SDS011;24924;50.054;8.790;2024-03-08T06:01:58;28.20;;;14.15;;
38603;SDS011;24924;50.054;8.790;2024-03-08T06:04:47;29.17;;;13.87;;
38603;SDS011;24924;50.054;8.790;2024-03-08T06:07:35;30.33;;;15.27;;
38603;SDS011;24924;50.054;8.790;2024-03-08T06:10:22;30.60;;;15.57;;
38603;SDS011;24924;50.054;8.790;2024-03-08T06:13:08;30.70;;;15.77;;
38603;SDS011;24924;50.054;8.790;2024-03-08T06:15:54;32.47;;;15.73;;
38603;SDS011;24924;50.054;8.790;2024-03-08T06:18:41;33.73;;;16.17;;
38603;SDS011;24924;50.054;8.790;2024-03-08T06:21:27;30.92;;;15.38;;
38603;SDS011;24924;50.054;8.790;2024-03-08T06:24:13;33.65;;;16.38;;
38603;SDS011;24924;50.054;8.790;2024-03-08T06:27:00;36.03;;;16.65;;
38603;SDS011;24924;50.054;8.790;2024-03-08T06:29:46;33.17;;;16.77;;
38603;SDS011;24924;50.054;8.790;2024-03-08T06:32:35;31.03;;;15.23;;
38603;SDS011;24924;50.054;8.790;2024-03-08T06:35:22;33.13;;;16.95;;
38603;SDS011;24924;50.054;8.790;2024-03-08T06:38:09;34.05;;;16.77;;
38603;SDS011;24924;50.054;8.790;2024-03-08T06:40:55;36.85;;;16.02;;
38603;SDS011;24924;50.054;8.790;2024-03-08T06:43:42;35.35;;;17.17;;
38603;SDS011;24924;50.054;8.790;2024-03-08T06:46:29;33.67;;;17.10;;
38603;SDS011;24924;50.054;8.790;2024-03-08T06:49:15;32.90;;;16.67;;
38603;SDS011;24924;50.054;8.790;2024-03-08T06:52:01;34.85;;;17.58;;
38603;SDS011;24924;50.054;8.790;2024-03-08T06:54:47;34.38;;;17.77;;
38603;SDS011;24924;50.054;8.790;2024-03-08T06:57:34;34.25;;;16.88;;
38603;SDS011;24924;50.054;8.790;2024-03-08T07:00:20;30.87;;;15.87;;
38603;SDS011;24924;50.054;8.790;2024-03-08T07:03:12;33.92;;;16.95;;
38603;SDS011;24924;50.054;8.790;2024-03-08T07:06:02;29.20;;;15.10;;
38603;SDS011;24924;50.054;8.790;2024-03-08T07:08:50;32.70;;;17.10;;
38603;SDS011;24924;50.054;8.790;2024-03-08T07:11:36;35.28;;;17.48;;
38603;SDS011;24924;50.054;8.790;2024-03-08T07:14:22;32.97;;;16.90;;
38603;SDS011;24924;50.054;8.790;2024-03-08T07:17:09;32.47;;;16.80;;
38603;SDS011;24924;50.054;8.790;2024-03-08T07:19:55;31.75;;;15.80;;
38603;SDS011;24924;50.054;8.790;2024-03-08T07:22:42;32.55;;;16.10;;
38603;SDS011;24924;50.054;8.790;2024-03-08T07:25:29;31.90;;;16.02;;
38603;SDS011;24924;50.054;8.790;2024-03-08T07:28:15;28.73;;;15.83;;
38603;SDS011;24924;50.054;8.790;2024-03-08T07:31:01;29.55;;;15.82;;
38603;SDS011;24924;50.054;8.790;2024-03-08T07:33:58;30.58;;;16.08;;
38603;SDS011;24924;50.054;8.790;2024-03-08T07:36:44;32.20;;;16.25;;
38603;SDS011;24924;50.054;8.790;2024-03-08T07:39:31;28.13;;;15.38;;
38603;SDS011;24924;50.054;8.790;2024-03-08T07:42:17;29.13;;;15.63;;
38603;SDS011;24924;50.054;8.790;2024-03-08T07:45:03;33.63;;;15.48;;
38603;SDS011;24924;50.054;8.790;2024-03-08T07:47:52;31.70;;;16.17;;
38603;SDS011;24924;50.054;8.790;2024-03-08T07:50:39;30.77;;;15.98;;
38603;SDS011;24924;50.054;8.790;2024-03-08T07:53:26;33.22;;;16.80;;
38603;SDS011;24924;50.054;8.790;2024-03-08T07:56:12;30.67;;;15.53;;
38603;SDS011;24924;50.054;8.790;2024-03-08T07:58:59;32.42;;;16.20;;
38603;SDS011;24924;50.054;8.790;2024-03-08T08:01:45;32.40;;;16.35;;
38603;SDS011;24924;50.054;8.790;2024-03-08T08:04:32;30.55;;;15.77;;
38603;SDS011;24924;50.054;8.790;2024-03-08T08:07:19;29.00;;;15.48;;
38603;SDS011;24924;50.054;8.790;2024-03-08T08:10:05;30.57;;;16.40;;
38603;SDS011;24924;50.054;8.790;2024-03-08T08:12:52;32.20;;;17.00;;
38603;SDS011;24924;50.054;8.790;2024-03-08T08:15:38;28.25;;;16.23;;
38603;SDS011;24924;50.054;8.790;2024-03-08T08:18:24;30.70;;;16.00;;
38603;SDS011;24924;50.054;8.790;2024-03-08T08:21:12;26.67;;;15.50;;
38603;SDS011;24924;50.054;8.790;2024-03-08T08:23:58;27.43;;;15.27;;
38603;SDS011;24924;50.054;8.790;2024-03-08T08:26:44;28.25;;;15.68;;
38603;SDS011;24924;50.054;8.790;2024-03-08T08:29:31;26.65;;;15.13;;
38603;SDS011;24924;50.054;8.790;2024-03-08T08:32:18;27.98;;;14.88;;
38603;SDS011;24924;50.054;8.790;2024-03-08T08:35:06;25.88;;;15.15;;
38603;SDS011;24924;50.054;8.790;2024-03-08T08:37:53;26.73;;;14.60;;
38603;SDS011;24924;50.054;8.790;2024-03-08T08:40:39;23.85;;;14.93;;
38603;SDS011;24924;50.054;8.790;2024-03-08T08:43:27;23.70;;;14.82;;
38603;SDS011;24924;50.054;8.790;2024-03-08T08:46:13;24.73;;;14.80;;
38603;SDS011;24924;50.054;8.790;2024-03-08T08:48:59;25.55;;;14.65;;
38603;SDS011;24924;50.054;8.790;2024-03-08T08:51:48;23.77;;;13.77;;
38603;SDS011;24924;50.054;8.790;2024-03-08T08:54:35;23.10;;;13.70;;
38603;SDS011;24924;50.054;8.790;2024-03-08T08:57:21;24.92;;;13.52;;
38603;SDS011;24924;50.054;8.790;2024-03-08T09:00:07;24.35;;;14.15;;
38603;SDS011;24924;50.054;8.790;2024-03-08T09:02:54;24.10;;;13.85;;
38603;SDS011;24924;50.054;8.790;2024-03-08T09:05:43;24.93;;;13.67;;
38603;SDS011;24924;50.054;8.790;2024-03-08T09:08:29;24.63;;;13.57;;
38603;SDS011;24924;50.054;8.790;2024-03-08T09:11:15;21.38;;;12.30;;
38603;SDS011;24924;50.054;8.790;2024-03-08T09:14:01;20.83;;;13.85;;
38603;SDS011;24924;50.054;8.790;2024-03-08T09:16:47;22.88;;;13.45;;
38603;SDS011;24924;50.054;8.790;2024-03-08T09:19:34;22.03;;;12.43;;
38603;SDS011;24924;50.054;8.790;2024-03-08T09:22:20;22.83;;;13.65;;
38603;SDS011;24924;50.054;8.790;2024-03-08T09:25:06;23.85;;;13.02;;
38603;SDS011;24924;50.054;8.790;2024-03-08T09:27:55;22.05;;;12.48;;
38603;SDS011;24924;50.054;8.790;2024-03-08T09:30:41;22.70;;;13.70;;
38603;SDS011;24924;50.054;8.790;2024-03-08T09:33:28;21.43;;;12.97;;
38603;SDS011;24924;50.054;8.790;2024-03-08T09:36:14;23.15;;;12.38;;
38603;SDS011;24924;50.054;8.790;2024-03-08T09:39:00;25.27;;;13.48;;
38603;SDS011;24924;50.054;8.790;2024-03-08T09:41:47;22.15;;;12.70;;
38603;SDS011;24924;50.054;8.790;2024-03-08T09:44:36;22.27;;;13.15;;
38603;SDS011;24924;50.054;8.790;2024-03-08T09:47:22;20.43;;;11.43;;
38603;SDS011;24924;50.054;8.790;2024-03-08T09:50:12;21.83;;;12.98;;
38603;SDS011;24924;50.054;8.790;2024-03-08T09:52:59;24.02;;;13.60;;
38603;SDS011;24924;50.054;8.790;2024-03-08T09:55:46;23.98;;;13.30;;
38603;SDS011;24924;50.054;8.790;2024-03-08T09:58:35;21.38;;;11.60;;
38603;SDS011;24924;50.054;8.790;2024-03-08T10:01:21;22.57;;;11.90;;
38603;SDS011;24924;50.054;8.790;2024-03-08T10:04:07;20.75;;;11.80;;
38603;SDS011;24924;50.054;8.790;2024-03-08T10:06:57;21.42;;;12.85;;
38603;SDS011;24924;50.054;8.790;2024-03-08T10:09:44;19.33;;;12.07;;
38603;SDS011;24924;50.054;8.790;2024-03-08T10:12:35;20.27;;;12.23;;
38603;SDS011;24924;50.054;8.790;2024-03-08T10:15:21;20.07;;;11.63;;
38603;SDS011;24924;50.054;8.790;2024-03-08T10:18:07;19.95;;;11.73;;
38603;SDS011;24924;50.054;8.790;2024-03-08T10:21:04;21.20;;;12.57;;
38603;SDS011;24924;50.054;8.790;2024-03-08T10:23:52;24.02;;;12.85;;
38603;SDS011;24924;50.054;8.790;2024-03-08T10:26:39;19.95;;;11.27;;
38603;SDS011;24924;50.054;8.790;2024-03-08T10:29:25;20.33;;;11.53;;
38603;SDS011;24924;50.054;8.790;2024-03-08T10:32:11;19.23;;;11.57;;
38603;SDS011;24924;50.054;8.790;2024-03-08T10:34:57;21.98;;;11.85;;
38603;SDS011;24924;50.054;8.790;2024-03-08T10:37:47;20.55;;;11.85;;
38603;SDS011;24924;50.054;8.790;2024-03-08T10:40:49;21.40;;;11.93;;
38603;SDS011;24924;50.054;8.790;2024-03-08T10:44:04;20.87;;;12.00;;
38603;SDS011;24924;50.054;8.790;2024-03-08T10:46:54;19.95;;;11.32;;
38603;SDS011;24924;50.054;8.790;2024-03-08T10:52:51;16.85;;;10.48;;
38603;SDS011;24924;50.054;8.790;2024-03-08T10:55:38;18.90;;;10.80;;
38603;SDS011;24924;50.054;8.790;2024-03-08T10:58:27;19.23;;;11.50;;
38603;SDS011;24924;50.054;8.790;2024-03-08T11:01:14;19.25;;;11.10;;
38603;SDS011;24924;50.054;8.790;2024-03-08T11:04:00;16.77;;;10.65;;
38603;SDS011;24924;50.054;8.790;2024-03-08T11:06:51;18.73;;;11.95;;
38603;SDS011;24924;50.054;8.790;2024-03-08T11:09:41;17.40;;;11.32;;
38603;SDS011;24924;50.054;8.790;2024-03-08T11:12:36;19.33;;;11.00;;
38603;SDS011;24924;50.054;8.790;2024-03-08T11:15:23;17.98;;;10.32;;
38603;SDS011;24924;50.054;8.790;2024-03-08T11:18:10;17.60;;;10.82;;
38603;SDS011;24924;50.054;8.790;2024-03-08T11:20:57;20.40;;;11.00;;
38603;SDS011;24924;50.054;8.790;2024-03-08T11:23:52;19.27;;;11.00;;
38603;SDS011;24924;50.054;8.790;2024-03-08T11:26:53;17.17;;;10.20;;
38603;SDS011;24924;50.054;8.790;2024-03-08T11:29:42;16.92;;;10.52;;
38603;SDS011;24924;50.054;8.790;2024-03-08T11:32:29;19.35;;;11.40;;
38603;SDS011;24924;50.054;8.790;2024-03-08T11:35:19;19.63;;;11.98;;
38603;SDS011;24924;50.054;8.790;2024-03-08T11:38:07;19.02;;;11.50;;
38603;SDS011;24924;50.054;8.790;2024-03-08T11:40:56;19.13;;;12.00;;
38603;SDS011;24924;50.054;8.790;2024-03-08T11:43:43;18.63;;;11.27;;
38603;SDS011;24924;50.054;8.790;2024-03-08T11:46:29;19.77;;;11.65;;
38603;SDS011;24924;50.054;8.790;2024-03-08T11:49:16;18.38;;;11.10;;
38603;SDS011;24924;50.054;8.790;2024-03-08T11:52:02;19.77;;;11.60;;
38603;SDS011;24924;50.054;8.790;2024-03-08T11:54:52;18.37;;;11.77;;
38603;SDS011;24924;50.054;8.790;2024-03-08T11:57:40;18.15;;;11.05;;
38603;SDS011;24924;50.054;8.790;2024-03-08T12:00:27;18.58;;;11.63;;
38603;SDS011;24924;50.054;8.790;2024-03-08T12:03:20;18.80;;;11.48;;
38603;SDS011;24924;50.054;8.790;2024-03-08T12:06:06;18.92;;;12.27;;
38603;SDS011;24924;50.054;8.790;2024-03-08T12:08:54;19.50;;;12.23;;
38603;SDS011;24924;50.054;8.790;2024-03-08T12:11:40;20.30;;;11.95;;
38603;SDS011;24924;50.054;8.790;2024-03-08T12:14:28;18.80;;;11.65;;
38603;SDS011;24924;50.054;8.790;2024-03-08T12:17:14;18.25;;;11.68;;
38603;SDS011;24924;50.054;8.790;2024-03-08T12:20:14;21.27;;;12.43;;
38603;SDS011;24924;50.054;8.790;2024-03-08T12:23:07;19.67;;;12.10;;
38603;SDS011;24924;50.054;8.790;2024-03-08T12:26:09;20.48;;;11.80;;
38603;SDS011;24924;50.054;8.790;2024-03-08T12:32:09;20.55;;;12.40;;
38603;SDS011;24924;50.054;8.790;2024-03-08T12:34:57;21.13;;;12.80;;
38603;SDS011;24924;50.054;8.790;2024-03-08T12:37:43;20.17;;;11.87;;
38603;SDS011;24924;50.054;8.790;2024-03-08T12:40:30;19.17;;;12.55;;
38603;SDS011;24924;50.054;8.790;2024-03-08T12:43:17;19.90;;;12.38;;
38603;SDS011;24924;50.054;8.790;2024-03-08T12:46:04;21.08;;;11.80;;
38603;SDS011;24924;50.054;8.790;2024-03-08T12:48:51;18.55;;;12.20;;
38603;SDS011;24924;50.054;8.790;2024-03-08T12:51:39;19.17;;;11.83;;
38603;SDS011;24924;50.054;8.790;2024-03-08T12:54:25;19.70;;;11.75;;
38603;SDS011;24924;50.054;8.790;2024-03-08T12:57:11;20.52;;;12.50;;
38603;SDS011;24924;50.054;8.790;2024-03-08T12:59:58;18.15;;;11.60;;
38603;SDS011;24924;50.054;8.790;2024-03-08T13:02:47;18.80;;;12.32;;
38603;SDS011;24924;50.054;8.790;2024-03-08T13:05:33;20.90;;;11.73;;
38603;SDS011;24924;50.054;8.790;2024-03-08T13:08:19;20.25;;;12.05;;
38603;SDS011;24924;50.054;8.790;2024-03-08T13:11:07;19.52;;;12.35;;
38603;SDS011;24924;50.054;8.790;2024-03-08T13:13:56;20.05;;;11.65;;
38603;SDS011;24924;50.054;8.790;2024-03-08T13:16:45;19.92;;;11.82;;
38603;SDS011;24924;50.054;8.790;2024-03-08T13:19:34;20.30;;;11.83;;
38603;SDS011;24924;50.054;8.790;2024-03-08T13:22:20;19.80;;;11.63;;
38603;SDS011;24924;50.054;8.790;2024-03-08T13:25:08;18.75;;;11.70;;
38603;SDS011;24924;50.054;8.790;2024-03-08T13:27:58;20.80;;;11.35;;
38603;SDS011;24924;50.054;8.790;2024-03-08T13:30:46;19.35;;;11.48;;
38603;SDS011;24924;50.054;8.790;2024-03-08T13:33:32;19.40;;;11.87;;
38603;SDS011;24924;50.054;8.790;2024-03-08T13:36:22;18.52;;;11.95;;
38603;SDS011;24924;50.054;8.790;2024-03-08T13:39:09;18.23;;;11.18;;
38603;SDS011;24924;50.054;8.790;2024-03-08T13:42:01;19.65;;;11.30;;
38603;SDS011;24924;50.054;8.790;2024-03-08T13:44:48;20.08;;;11.32;;
38603;SDS011;24924;50.054;8.790;2024-03-08T13:47:35;18.67;;;11.93;;
38603;SDS011;24924;50.054;8.790;2024-03-08T13:50:22;19.00;;;11.70;;
38603;SDS011;24924;50.054;8.790;2024-03-08T13:53:09;17.85;;;11.77;;
38603;SDS011;24924;50.054;8.790;2024-03-08T13:55:55;18.15;;;11.07;;
38603;SDS011;24924;50.054;8.790;2024-03-08T13:58:42;19.23;;;12.20;;
38603;SDS011;24924;50.054;8.790;2024-03-08T14:01:29;18.87;;;11.77;;
38603;SDS011;24924;50.054;8.790;2024-03-08T14:04:16;17.95;;;11.45;;
38603;SDS011;24924;50.054;8.790;2024-03-08T14:07:02;17.63;;;11.45;;
38603;SDS011;24924;50.054;8.790;2024-03-08T14:09:49;20.05;;;11.63;;
38603;SDS011;24924;50.054;8.790;2024-03-08T14:12:38;17.75;;;11.63;;
38603;SDS011;24924;50.054;8.790;2024-03-08T14:15:25;18.77;;;11.00;;
38603;SDS011;24924;50.054;8.790;2024-03-08T14:18:11;18.55;;;11.57;;
38603;SDS011;24924;50.054;8.790;2024-03-08T14:20:58;20.10;;;11.73;;
38603;SDS011;24924;50.054;8.790;2024-03-08T14:23:44;19.70;;;12.25;;
38603;SDS011;24924;50.054;8.790;2024-03-08T14:26:30;21.05;;;12.48;;
38603;SDS011;24924;50.054;8.790;2024-03-08T14:29:17;17.07;;;10.83;;
38603;SDS011;24924;50.054;8.790;2024-03-08T14:32:06;19.67;;;12.25;;
38603;SDS011;24924;50.054;8.790;2024-03-08T14:34:53;18.88;;;11.20;;
38603;SDS011;24924;50.054;8.790;2024-03-08T14:37:40;19.85;;;11.55;;
38603;SDS011;24924;50.054;8.790;2024-03-08T14:40:29;18.85;;;11.50;;
38603;SDS011;24924;50.054;8.790;2024-03-08T14:43:16;18.23;;;10.60;;
38603;SDS011;24924;50.054;8.790;2024-03-08T14:46:05;20.67;;;10.80;;
38603;SDS011;24924;50.054;8.790;2024-03-08T14:48:53;18.63;;;11.48;;
38603;SDS011;24924;50.054;8.790;2024-03-08T14:51:39;17.13;;;10.02;;
38603;SDS011;24924;50.054;8.790;2024-03-08T14:54:26;19.90;;;11.65;;
38603;SDS011;24924;50.054;8.790;2024-03-08T14:57:12;18.00;;;11.37;;
38603;SDS011;24924;50.054;8.790;2024-03-08T14:59:59;17.90;;;10.80;;
38603;SDS011;24924;50.054;8.790;2024-03-08T15:02:54;18.55;;;10.98;;
38603;SDS011;24924;50.054;8.790;2024-03-08T15:05:42;18.98;;;11.00;;
38603;SDS011;24924;50.054;8.790;2024-03-08T15:08:33;19.70;;;12.02;;
38603;SDS011;24924;50.054;8.790;2024-03-08T15:11:21;21.00;;;11.30;;
38603;SDS011;24924;50.054;8.790;2024-03-08T15:14:10;18.60;;;10.60;;
38603;SDS011;24924;50.054;8.790;2024-03-08T15:16:57;19.13;;;11.52;;
38603;SDS011;24924;50.054;8.790;2024-03-08T15:19:43;16.42;;;10.52;;
38603;SDS011;24924;50.054;8.790;2024-03-08T15:22:30;17.58;;;10.68;;
38603;SDS011;24924;50.054;8.790;2024-03-08T15:25:16;17.43;;;10.37;;
38603;SDS011;24924;50.054;8.790;2024-03-08T15:28:06;18.80;;;10.57;;
38603;SDS011;24924;50.054;8.790;2024-03-08T15:30:59;17.80;;;10.15;;
38603;SDS011;24924;50.054;8.790;2024-03-08T15:33:50;18.52;;;9.43;;
38603;SDS011;24924;50.054;8.790;2024-03-08T15:36:44;16.50;;;10.02;;
38603;SDS011;24924;50.054;8.790;2024-03-08T15:39:33;16.10;;;9.80;;
38603;SDS011;24924;50.054;8.790;2024-03-08T15:42:19;17.38;;;9.95;;
38603;SDS011;24924;50.054;8.790;2024-03-08T15:45:07;17.20;;;9.63;;
38603;SDS011;24924;50.054;8.790;2024-03-08T15:47:54;18.00;;;9.80;;
38603;SDS011;24924;50.054;8.790;2024-03-08T15:50:41;17.73;;;10.48;;
38603;SDS011;24924;50.054;8.790;2024-03-08T15:53:28;15.00;;;9.50;;
38603;SDS011;24924;50.054;8.790;2024-03-08T15:56:18;15.73;;;9.68;;
38603;SDS011;24924;50.054;8.790;2024-03-08T15:59:07;17.30;;;9.75;;
38603;SDS011;24924;50.054;8.790;2024-03-08T16:01:54;15.52;;;9.45;;
38603;SDS011;24924;50.054;8.790;2024-03-08T16:04:40;14.85;;;9.00;;
38603;SDS011;24924;50.054;8.790;2024-03-08T16:07:26;18.90;;;9.43;;
38603;SDS011;24924;50.054;8.790;2024-03-08T16:10:12;15.25;;;8.88;;
38603;SDS011;24924;50.054;8.790;2024-03-08T16:12:58;15.65;;;9.43;;
38603;SDS011;24924;50.054;8.790;2024-03-08T16:15:47;12.75;;;7.95;;
38603;SDS011;24924;50.054;8.790;2024-03-08T16:18:33;15.43;;;9.43;;
38603;SDS011;24924;50.054;8.790;2024-03-08T16:21:22;16.30;;;9.00;;
38603;SDS011;24924;50.054;8.790;2024-03-08T16:24:09;15.48;;;8.57;;
38603;SDS011;24924;50.054;8.790;2024-03-08T16:26:55;16.05;;;9.05;;
38603;SDS011;24924;50.054;8.790;2024-03-08T16:29:41;14.18;;;8.45;;